San Rafael, CA (94904)

3:57 PM PST on February 06, 2016 (GMT -0800)
Escalle Village | | Change Station
CLOSE
Current Station
Personal Weather Station
Location: Larkspur, CA
Elevation: 62 ft
Nearby Weather Stations

Elev 62 ft 37.95 °N, 122.54 °W | Updated 3 minutes ago

Partly Cloudy
Partly Cloudy
63.2 °F
Feels Like 63.2 °F
N
0.0
Wind Variable Wind from SE
Gusts 1.0 mph

Today
High -- | Low -- °F
--% Chance of Precip.
Yesterday
High -- | Low -- °F
Precip. -- in
Pressure 30.35 in
Visibility 10.0 miles
Clouds Clear
Dew Point 47 °F
Humidity 56%
Rainfall 0.00 in
Snow Depth Not available.
7:10 AM 5:38 PM
Waning Crescent, 3% visible
METAR KO69 062335Z AUTO 00000KT 10SM CLR 18/09 A3035 RMK AO1
Pressure 30.35 in
Visibility 10.0 miles
Clouds Clear
Dew Point 47 °F
Humidity 56%
Rainfall 0.00 in
Snow Depth Not available.
7:10 AM 5:38 PM
Waning Crescent, 3% visible
METAR KO69 062335Z AUTO 00000KT 10SM CLR 18/09 A3035 RMK AO1

10-Day Weather Forecast

Almanac

Astronomy

Feb. 06, 2016 Rise Set
Actual Time
Civil Twilight
Nautical Twilight
Astronomical Twilight
Moon
Length of Visible Light
Length of Day
Tomorrow will be .
, % of the Moon is Illuminated

Today's Extremes

State Highs State Lows

Community

WunderPhotos

Upload Photos

1,891,098 photos uploaded!

WunderBlog® & News

Nearby

Air Quality

  Air Quality AQ Index Pollutant
Not available.

Snow Depth

Station Depth Elevation

Earthquake Activity

City Distance Mag. Time & Date
Minimum magnitude displayed is 2.5.

Coastal Water Temperatures

Place Temperature

Stations

Nearby Weather Stations

Station Location Temp. Windchill Dew Point Humidity Wind Precip. Elev Updated Type
                   

Watches & Warnings

There are currently no watches in effect.